sensor_id;sensor_type;location;lat;lon;timestamp;P1;durP1;ratioP1;P2;durP2;ratioP2
18883;SDS011;9574;47.282;9.640;2023-05-24T00:01:45;9.82;;;6.40;;
18883;SDS011;9574;47.282;9.640;2023-05-24T00:04:12;10.63;;;6.45;;
18883;SDS011;9574;47.282;9.640;2023-05-24T00:06:39;9.83;;;6.23;;
18883;SDS011;9574;47.282;9.640;2023-05-24T00:09:08;10.07;;;5.88;;
18883;SDS011;9574;47.282;9.640;2023-05-24T00:11:37;13.13;;;6.80;;
18883;SDS011;9574;47.282;9.640;2023-05-24T00:14:04;9.20;;;6.87;;
18883;SDS011;9574;47.282;9.640;2023-05-24T00:16:31;10.73;;;6.20;;
18883;SDS011;9574;47.282;9.640;2023-05-24T00:18:59;11.10;;;6.07;;
18883;SDS011;9574;47.282;9.640;2023-05-24T00:21:26;11.82;;;6.18;;
18883;SDS011;9574;47.282;9.640;2023-05-24T00:23:53;8.67;;;5.83;;
18883;SDS011;9574;47.282;9.640;2023-05-24T00:26:20;11.35;;;5.85;;
18883;SDS011;9574;47.282;9.640;2023-05-24T00:28:48;10.30;;;5.77;;
18883;SDS011;9574;47.282;9.640;2023-05-24T00:31:15;11.10;;;5.83;;
18883;SDS011;9574;47.282;9.640;2023-05-24T00:33:42;8.67;;;6.00;;
18883;SDS011;9574;47.282;9.640;2023-05-24T00:36:09;8.90;;;5.67;;
18883;SDS011;9574;47.282;9.640;2023-05-24T00:38:36;9.75;;;5.95;;
18883;SDS011;9574;47.282;9.640;2023-05-24T00:41:03;9.73;;;6.10;;
18883;SDS011;9574;47.282;9.640;2023-05-24T00:43:30;9.67;;;5.60;;
18883;SDS011;9574;47.282;9.640;2023-05-24T00:46:09;9.27;;;5.43;;
18883;SDS011;9574;47.282;9.640;2023-05-24T00:48:40;10.13;;;5.93;;
18883;SDS011;9574;47.282;9.640;2023-05-24T00:51:08;9.60;;;5.87;;
18883;SDS011;9574;47.282;9.640;2023-05-24T00:53:37;8.57;;;5.87;;
18883;SDS011;9574;47.282;9.640;2023-05-24T00:56:05;12.37;;;6.47;;
18883;SDS011;9574;47.282;9.640;2023-05-24T00:58:33;8.67;;;6.20;;
18883;SDS011;9574;47.282;9.640;2023-05-24T01:01:01;9.50;;;6.07;;
18883;SDS011;9574;47.282;9.640;2023-05-24T01:03:30;10.23;;;6.43;;
18883;SDS011;9574;47.282;9.640;2023-05-24T01:05:58;14.83;;;6.37;;
18883;SDS011;9574;47.282;9.640;2023-05-24T01:08:34;10.17;;;6.13;;
18883;SDS011;9574;47.282;9.640;2023-05-24T01:11:22;10.40;;;6.10;;
18883;SDS011;9574;47.282;9.640;2023-05-24T01:13:57;11.50;;;6.53;;
18883;SDS011;9574;47.282;9.640;2023-05-24T01:16:32;10.43;;;6.27;;
18883;SDS011;9574;47.282;9.640;2023-05-24T01:19:09;10.87;;;5.93;;
18883;SDS011;9574;47.282;9.640;2023-05-24T01:21:58;10.30;;;6.30;;
18883;SDS011;9574;47.282;9.640;2023-05-24T01:24:38;8.37;;;5.83;;
18883;SDS011;9574;47.282;9.640;2023-05-24T01:27:20;10.37;;;5.70;;
18883;SDS011;9574;47.282;9.640;2023-05-24T01:29:49;8.83;;;5.33;;
18883;SDS011;9574;47.282;9.640;2023-05-24T01:32:18;9.17;;;5.70;;
18883;SDS011;9574;47.282;9.640;2023-05-24T01:34:45;9.00;;;6.17;;
18883;SDS011;9574;47.282;9.640;2023-05-24T01:37:12;9.10;;;5.50;;
18883;SDS011;9574;47.282;9.640;2023-05-24T01:39:39;7.77;;;5.13;;
18883;SDS011;9574;47.282;9.640;2023-05-24T01:42:08;11.10;;;6.20;;
18883;SDS011;9574;47.282;9.640;2023-05-24T01:44:43;9.00;;;5.80;;
18883;SDS011;9574;47.282;9.640;2023-05-24T01:47:20;8.30;;;5.53;;
18883;SDS011;9574;47.282;9.640;2023-05-24T01:49:54;9.77;;;6.00;;
18883;SDS011;9574;47.282;9.640;2023-05-24T01:52:30;9.17;;;5.97;;
18883;SDS011;9574;47.282;9.640;2023-05-24T01:54:58;8.13;;;5.87;;
18883;SDS011;9574;47.282;9.640;2023-05-24T01:57:28;9.30;;;5.60;;
18883;SDS011;9574;47.282;9.640;2023-05-24T01:59:57;15.43;;;6.37;;
18883;SDS011;9574;47.282;9.640;2023-05-24T02:02:27;8.40;;;5.90;;
18883;SDS011;9574;47.282;9.640;2023-05-24T02:04:54;8.87;;;6.30;;
18883;SDS011;9574;47.282;9.640;2023-05-24T02:07:21;11.47;;;6.57;;
18883;SDS011;9574;47.282;9.640;2023-05-24T02:09:48;9.97;;;6.27;;
18883;SDS011;9574;47.282;9.640;2023-05-24T02:12:15;10.27;;;6.73;;
18883;SDS011;9574;47.282;9.640;2023-05-24T02:14:42;11.07;;;7.20;;
18883;SDS011;9574;47.282;9.640;2023-05-24T02:17:10;13.43;;;6.67;;
18883;SDS011;9574;47.282;9.640;2023-05-24T02:19:38;10.57;;;7.10;;
18883;SDS011;9574;47.282;9.640;2023-05-24T02:22:05;12.27;;;7.20;;
18883;SDS011;9574;47.282;9.640;2023-05-24T02:24:32;10.57;;;7.00;;
18883;SDS011;9574;47.282;9.640;2023-05-24T02:27:00;10.83;;;6.70;;
18883;SDS011;9574;47.282;9.640;2023-05-24T02:29:27;12.97;;;7.33;;
18883;SDS011;9574;47.282;9.640;2023-05-24T02:31:54;10.47;;;6.53;;
18883;SDS011;9574;47.282;9.640;2023-05-24T02:34:23;11.10;;;6.93;;
18883;SDS011;9574;47.282;9.640;2023-05-24T02:36:50;10.87;;;6.17;;
18883;SDS011;9574;47.282;9.640;2023-05-24T02:39:19;9.47;;;6.30;;
18883;SDS011;9574;47.282;9.640;2023-05-24T02:41:47;10.83;;;6.63;;
18883;SDS011;9574;47.282;9.640;2023-05-24T02:44:14;9.73;;;6.63;;
18883;SDS011;9574;47.282;9.640;2023-05-24T02:46:41;10.53;;;6.40;;
18883;SDS011;9574;47.282;9.640;2023-05-24T02:49:08;7.53;;;5.27;;
18883;SDS011;9574;47.282;9.640;2023-05-24T02:51:36;7.87;;;5.40;;
18883;SDS011;9574;47.282;9.640;2023-05-24T02:54:03;7.63;;;5.20;;
18883;SDS011;9574;47.282;9.640;2023-05-24T02:56:30;8.30;;;4.77;;
18883;SDS011;9574;47.282;9.640;2023-05-24T02:58:58;9.20;;;5.40;;
18883;SDS011;9574;47.282;9.640;2023-05-24T03:01:25;8.00;;;5.40;;
18883;SDS011;9574;47.282;9.640;2023-05-24T03:03:52;7.60;;;5.23;;
18883;SDS011;9574;47.282;9.640;2023-05-24T03:06:19;16.27;;;5.80;;
18883;SDS011;9574;47.282;9.640;2023-05-24T03:08:47;10.00;;;5.60;;
18883;SDS011;9574;47.282;9.640;2023-05-24T03:11:15;10.93;;;5.30;;
18883;SDS011;9574;47.282;9.640;2023-05-24T03:13:45;6.63;;;4.80;;
18883;SDS011;9574;47.282;9.640;2023-05-24T03:16:12;10.23;;;5.50;;
18883;SDS011;9574;47.282;9.640;2023-05-24T03:18:41;9.43;;;5.33;;
18883;SDS011;9574;47.282;9.640;2023-05-24T03:21:08;7.27;;;5.17;;
18883;SDS011;9574;47.282;9.640;2023-05-24T03:23:35;6.60;;;5.03;;
18883;SDS011;9574;47.282;9.640;2023-05-24T03:26:03;6.30;;;5.00;;
18883;SDS011;9574;47.282;9.640;2023-05-24T03:28:31;6.87;;;4.57;;
18883;SDS011;9574;47.282;9.640;2023-05-24T03:30:58;6.20;;;4.87;;
18883;SDS011;9574;47.282;9.640;2023-05-24T03:33:25;5.50;;;4.53;;
18883;SDS011;9574;47.282;9.640;2023-05-24T03:35:52;6.10;;;4.73;;
18883;SDS011;9574;47.282;9.640;2023-05-24T03:38:19;7.30;;;4.67;;
18883;SDS011;9574;47.282;9.640;2023-05-24T03:40:46;8.63;;;5.10;;
18883;SDS011;9574;47.282;9.640;2023-05-24T03:43:15;6.97;;;4.90;;
18883;SDS011;9574;47.282;9.640;2023-05-24T03:45:42;7.50;;;5.10;;
18883;SDS011;9574;47.282;9.640;2023-05-24T03:48:09;6.07;;;4.77;;
18883;SDS011;9574;47.282;9.640;2023-05-24T03:50:36;8.73;;;5.30;;
18883;SDS011;9574;47.282;9.640;2023-05-24T03:53:03;10.07;;;5.03;;
18883;SDS011;9574;47.282;9.640;2023-05-24T03:55:30;7.60;;;5.20;;
18883;SDS011;9574;47.282;9.640;2023-05-24T03:57:57;8.53;;;5.40;;
18883;SDS011;9574;47.282;9.640;2023-05-24T04:00:25;7.27;;;5.30;;
18883;SDS011;9574;47.282;9.640;2023-05-24T04:02:52;8.53;;;5.00;;
18883;SDS011;9574;47.282;9.640;2023-05-24T04:05:20;8.30;;;4.80;;
18883;SDS011;9574;47.282;9.640;2023-05-24T04:07:50;8.70;;;4.93;;
18883;SDS011;9574;47.282;9.640;2023-05-24T04:10:17;7.23;;;5.53;;
18883;SDS011;9574;47.282;9.640;2023-05-24T04:12:45;8.17;;;5.50;;
18883;SDS011;9574;47.282;9.640;2023-05-24T04:15:12;7.50;;;4.73;;
18883;SDS011;9574;47.282;9.640;2023-05-24T04:17:41;8.70;;;5.47;;
18883;SDS011;9574;47.282;9.640;2023-05-24T04:20:09;8.20;;;5.57;;
18883;SDS011;9574;47.282;9.640;2023-05-24T04:22:36;7.30;;;5.50;;
18883;SDS011;9574;47.282;9.640;2023-05-24T04:25:03;7.70;;;5.30;;
18883;SDS011;9574;47.282;9.640;2023-05-24T04:27:31;6.50;;;5.00;;
18883;SDS011;9574;47.282;9.640;2023-05-24T04:30:00;8.27;;;5.50;;
18883;SDS011;9574;47.282;9.640;2023-05-24T04:32:27;8.83;;;5.73;;
18883;SDS011;9574;47.282;9.640;2023-05-24T04:34:55;6.43;;;4.60;;
18883;SDS011;9574;47.282;9.640;2023-05-24T04:37:22;8.43;;;5.73;;
18883;SDS011;9574;47.282;9.640;2023-05-24T04:39:49;8.30;;;5.73;;
18883;SDS011;9574;47.282;9.640;2023-05-24T04:42:16;8.00;;;5.83;;
18883;SDS011;9574;47.282;9.640;2023-05-24T04:44:43;10.80;;;5.60;;
18883;SDS011;9574;47.282;9.640;2023-05-24T04:47:10;9.80;;;5.93;;
18883;SDS011;9574;47.282;9.640;2023-05-24T04:49:39;8.10;;;6.13;;
18883;SDS011;9574;47.282;9.640;2023-05-24T04:52:07;7.37;;;5.23;;
18883;SDS011;9574;47.282;9.640;2023-05-24T04:54:34;9.10;;;6.63;;
18883;SDS011;9574;47.282;9.640;2023-05-24T04:57:01;8.70;;;5.13;;
18883;SDS011;9574;47.282;9.640;2023-05-24T04:59:28;10.97;;;6.10;;
18883;SDS011;9574;47.282;9.640;2023-05-24T05:01:55;8.20;;;5.70;;
18883;SDS011;9574;47.282;9.640;2023-05-24T05:04:22;8.37;;;6.20;;
18883;SDS011;9574;47.282;9.640;2023-05-24T05:06:49;11.60;;;6.23;;
18883;SDS011;9574;47.282;9.640;2023-05-24T05:09:17;6.40;;;5.43;;
18883;SDS011;9574;47.282;9.640;2023-05-24T05:11:45;10.13;;;5.67;;
18883;SDS011;9574;47.282;9.640;2023-05-24T05:14:12;7.40;;;5.93;;
18883;SDS011;9574;47.282;9.640;2023-05-24T05:16:39;8.53;;;5.40;;
18883;SDS011;9574;47.282;9.640;2023-05-24T05:19:07;9.23;;;6.20;;
18883;SDS011;9574;47.282;9.640;2023-05-24T05:21:34;10.03;;;5.83;;
18883;SDS011;9574;47.282;9.640;2023-05-24T05:24:03;7.93;;;5.47;;
18883;SDS011;9574;47.282;9.640;2023-05-24T05:26:32;8.00;;;5.70;;
18883;SDS011;9574;47.282;9.640;2023-05-24T05:28:59;7.60;;;6.23;;
18883;SDS011;9574;47.282;9.640;2023-05-24T05:31:26;8.77;;;6.07;;
18883;SDS011;9574;47.282;9.640;2023-05-24T05:33:54;12.33;;;6.60;;
18883;SDS011;9574;47.282;9.640;2023-05-24T05:36:21;9.87;;;6.10;;
18883;SDS011;9574;47.282;9.640;2023-05-24T05:38:48;10.90;;;6.67;;
18883;SDS011;9574;47.282;9.640;2023-05-24T05:41:15;8.63;;;6.37;;
18883;SDS011;9574;47.282;9.640;2023-05-24T05:43:43;9.47;;;6.67;;
18883;SDS011;9574;47.282;9.640;2023-05-24T05:46:12;10.37;;;7.10;;
18883;SDS011;9574;47.282;9.640;2023-05-24T05:48:40;12.50;;;7.33;;
18883;SDS011;9574;47.282;9.640;2023-05-24T05:51:07;9.97;;;6.97;;
18883;SDS011;9574;47.282;9.640;2023-05-24T05:53:34;14.53;;;7.20;;
18883;SDS011;9574;47.282;9.640;2023-05-24T05:56:01;9.67;;;6.80;;
18883;SDS011;9574;47.282;9.640;2023-05-24T05:58:28;10.73;;;6.93;;
18883;SDS011;9574;47.282;9.640;2023-05-24T06:00:56;10.77;;;7.40;;
18883;SDS011;9574;47.282;9.640;2023-05-24T06:03:23;11.40;;;7.17;;
18883;SDS011;9574;47.282;9.640;2023-05-24T06:05:50;11.37;;;6.93;;
18883;SDS011;9574;47.282;9.640;2023-05-24T06:08:17;9.53;;;6.53;;
18883;SDS011;9574;47.282;9.640;2023-05-24T06:10:44;9.73;;;6.77;;
18883;SDS011;9574;47.282;9.640;2023-05-24T06:13:11;8.80;;;6.50;;
18883;SDS011;9574;47.282;9.640;2023-05-24T06:15:38;7.63;;;5.30;;
18883;SDS011;9574;47.282;9.640;2023-05-24T06:18:07;8.43;;;5.00;;
18883;SDS011;9574;47.282;9.640;2023-05-24T06:20:34;8.40;;;5.00;;
18883;SDS011;9574;47.282;9.640;2023-05-24T06:23:01;7.77;;;4.53;;
18883;SDS011;9574;47.282;9.640;2023-05-24T06:25:29;8.17;;;4.10;;
18883;SDS011;9574;47.282;9.640;2023-05-24T06:27:57;5.47;;;4.00;;
18883;SDS011;9574;47.282;9.640;2023-05-24T06:30:23;5.33;;;4.10;;
18883;SDS011;9574;47.282;9.640;2023-05-24T06:32:51;6.43;;;3.57;;
18883;SDS011;9574;47.282;9.640;2023-05-24T06:35:19;4.33;;;3.20;;
18883;SDS011;9574;47.282;9.640;2023-05-24T06:37:46;3.67;;;3.30;;
18883;SDS011;9574;47.282;9.640;2023-05-24T06:40:13;5.57;;;3.23;;
18883;SDS011;9574;47.282;9.640;2023-05-24T06:42:40;5.03;;;3.10;;
18883;SDS011;9574;47.282;9.640;2023-05-24T06:45:07;4.27;;;2.97;;
18883;SDS011;9574;47.282;9.640;2023-05-24T06:47:35;3.73;;;2.77;;
18883;SDS011;9574;47.282;9.640;2023-05-24T06:50:02;4.00;;;3.13;;
18883;SDS011;9574;47.282;9.640;2023-05-24T06:52:31;4.30;;;3.20;;
18883;SDS011;9574;47.282;9.640;2023-05-24T06:54:58;4.37;;;2.93;;
18883;SDS011;9574;47.282;9.640;2023-05-24T06:57:25;3.90;;;3.07;;
18883;SDS011;9574;47.282;9.640;2023-05-24T06:59:52;4.10;;;3.00;;
18883;SDS011;9574;47.282;9.640;2023-05-24T07:02:19;5.13;;;3.27;;
18883;SDS011;9574;47.282;9.640;2023-05-24T07:04:50;4.53;;;3.37;;
18883;SDS011;9574;47.282;9.640;2023-05-24T07:07:17;6.97;;;3.37;;
18883;SDS011;9574;47.282;9.640;2023-05-24T07:09:46;5.33;;;3.53;;
18883;SDS011;9574;47.282;9.640;2023-05-24T07:12:13;6.57;;;3.60;;
18883;SDS011;9574;47.282;9.640;2023-05-24T07:14:40;4.50;;;3.20;;
18883;SDS011;9574;47.282;9.640;2023-05-24T07:17:07;7.03;;;4.30;;
18883;SDS011;9574;47.282;9.640;2023-05-24T07:19:34;4.97;;;3.67;;
18883;SDS011;9574;47.282;9.640;2023-05-24T07:22:01;6.00;;;4.67;;
18883;SDS011;9574;47.282;9.640;2023-05-24T07:24:28;6.33;;;4.17;;
18883;SDS011;9574;47.282;9.640;2023-05-24T07:26:56;6.63;;;4.40;;
18883;SDS011;9574;47.282;9.640;2023-05-24T07:29:23;7.43;;;4.73;;
18883;SDS011;9574;47.282;9.640;2023-05-24T07:31:51;6.73;;;4.40;;
18883;SDS011;9574;47.282;9.640;2023-05-24T07:34:19;6.93;;;4.60;;
18883;SDS011;9574;47.282;9.640;2023-05-24T07:36:47;7.93;;;4.77;;
18883;SDS011;9574;47.282;9.640;2023-05-24T07:39:14;9.03;;;5.03;;
18883;SDS011;9574;47.282;9.640;2023-05-24T07:41:41;8.87;;;4.73;;
18883;SDS011;9574;47.282;9.640;2023-05-24T07:44:12;8.43;;;5.40;;
18883;SDS011;9574;47.282;9.640;2023-05-24T07:46:39;6.13;;;4.77;;
18883;SDS011;9574;47.282;9.640;2023-05-24T07:49:06;6.73;;;4.63;;
18883;SDS011;9574;47.282;9.640;2023-05-24T07:51:32;6.03;;;4.43;;
18883;SDS011;9574;47.282;9.640;2023-05-24T07:54:00;5.60;;;3.73;;
18883;SDS011;9574;47.282;9.640;2023-05-24T07:56:27;6.13;;;4.17;;
18883;SDS011;9574;47.282;9.640;2023-05-24T07:58:55;5.80;;;3.77;;
18883;SDS011;9574;47.282;9.640;2023-05-24T08:01:28;7.50;;;4.20;;
18883;SDS011;9574;47.282;9.640;2023-05-24T08:03:56;7.13;;;4.17;;
18883;SDS011;9574;47.282;9.640;2023-05-24T08:06:23;9.00;;;3.87;;
18883;SDS011;9574;47.282;9.640;2023-05-24T08:08:50;10.00;;;4.77;;
18883;SDS011;9574;47.282;9.640;2023-05-24T08:11:17;7.33;;;4.33;;
18883;SDS011;9574;47.282;9.640;2023-05-24T08:13:45;6.23;;;4.20;;
18883;SDS011;9574;47.282;9.640;2023-05-24T08:16:12;12.70;;;5.30;;
18883;SDS011;9574;47.282;9.640;2023-05-24T08:18:40;8.10;;;4.67;;
18883;SDS011;9574;47.282;9.640;2023-05-24T08:21:07;5.20;;;4.10;;
18883;SDS011;9574;47.282;9.640;2023-05-24T08:23:34;6.60;;;4.73;;
18883;SDS011;9574;47.282;9.640;2023-05-24T08:26:01;8.83;;;5.47;;
18883;SDS011;9574;47.282;9.640;2023-05-24T08:28:28;7.03;;;5.20;;
18883;SDS011;9574;47.282;9.640;2023-05-24T08:30:55;6.40;;;4.47;;
18883;SDS011;9574;47.282;9.640;2023-05-24T08:33:23;6.87;;;4.93;;
18883;SDS011;9574;47.282;9.640;2023-05-24T08:35:51;8.13;;;4.97;;
18883;SDS011;9574;47.282;9.640;2023-05-24T08:38:18;8.20;;;5.17;;
18883;SDS011;9574;47.282;9.640;2023-05-24T08:40:46;7.83;;;5.20;;
18883;SDS011;9574;47.282;9.640;2023-05-24T08:43:13;8.67;;;5.40;;
18883;SDS011;9574;47.282;9.640;2023-05-24T08:45:40;8.53;;;5.70;;
18883;SDS011;9574;47.282;9.640;2023-05-24T08:48:08;9.03;;;5.50;;
18883;SDS011;9574;47.282;9.640;2023-05-24T08:50:37;8.47;;;5.03;;
18883;SDS011;9574;47.282;9.640;2023-05-24T08:53:06;8.07;;;5.40;;
18883;SDS011;9574;47.282;9.640;2023-05-24T08:55:35;8.93;;;5.10;;
18883;SDS011;9574;47.282;9.640;2023-05-24T08:58:03;7.97;;;4.73;;
18883;SDS011;9574;47.282;9.640;2023-05-24T09:00:31;8.37;;;5.20;;
18883;SDS011;9574;47.282;9.640;2023-05-24T09:02:58;9.47;;;5.70;;
18883;SDS011;9574;47.282;9.640;2023-05-24T09:05:26;7.03;;;4.50;;
18883;SDS011;9574;47.282;9.640;2023-05-24T09:07:55;6.73;;;4.97;;
18883;SDS011;9574;47.282;9.640;2023-05-24T09:10:26;8.13;;;5.63;;
18883;SDS011;9574;47.282;9.640;2023-05-24T09:12:55;9.67;;;5.40;;
18883;SDS011;9574;47.282;9.640;2023-05-24T09:15:23;9.13;;;5.03;;
18883;SDS011;9574;47.282;9.640;2023-05-24T09:17:50;9.77;;;6.27;;
18883;SDS011;9574;47.282;9.640;2023-05-24T09:20:17;8.27;;;5.33;;
18883;SDS011;9574;47.282;9.640;2023-05-24T09:22:49;9.50;;;5.47;;
18883;SDS011;9574;47.282;9.640;2023-05-24T09:25:17;9.53;;;5.70;;
18883;SDS011;9574;47.282;9.640;2023-05-24T09:27:49;8.83;;;5.50;;
18883;SDS011;9574;47.282;9.640;2023-05-24T09:30:17;8.07;;;5.60;;
18883;SDS011;9574;47.282;9.640;2023-05-24T09:32:54;9.53;;;6.40;;
18883;SDS011;9574;47.282;9.640;2023-05-24T09:35:22;9.90;;;6.47;;
18883;SDS011;9574;47.282;9.640;2023-05-24T09:37:52;12.63;;;6.47;;
18883;SDS011;9574;47.282;9.640;2023-05-24T09:40:21;9.37;;;6.30;;
18883;SDS011;9574;47.282;9.640;2023-05-24T09:42:52;10.27;;;6.13;;
18883;SDS011;9574;47.282;9.640;2023-05-24T09:45:28;14.43;;;6.63;;
18883;SDS011;9574;47.282;9.640;2023-05-24T09:47:55;11.20;;;7.00;;
18883;SDS011;9574;47.282;9.640;2023-05-24T09:50:24;10.57;;;6.10;;
18883;SDS011;9574;47.282;9.640;2023-05-24T09:52:52;11.90;;;6.47;;
18883;SDS011;9574;47.282;9.640;2023-05-24T09:55:20;11.20;;;6.57;;
18883;SDS011;9574;47.282;9.640;2023-05-24T09:57:50;12.80;;;6.17;;
18883;SDS011;9574;47.282;9.640;2023-05-24T10:00:27;12.43;;;6.60;;
18883;SDS011;9574;47.282;9.640;2023-05-24T10:03:01;9.03;;;5.63;;
18883;SDS011;9574;47.282;9.640;2023-05-24T10:05:30;13.30;;;7.10;;
18883;SDS011;9574;47.282;9.640;2023-05-24T10:07:58;15.47;;;7.07;;
18883;SDS011;9574;47.282;9.640;2023-05-24T10:10:26;8.70;;;5.87;;
18883;SDS011;9574;47.282;9.640;2023-05-24T10:12:56;9.47;;;5.97;;
18883;SDS011;9574;47.282;9.640;2023-05-24T10:15:24;13.30;;;7.10;;
18883;SDS011;9574;47.282;9.640;2023-05-24T10:17:51;11.93;;;7.00;;
18883;SDS011;9574;47.282;9.640;2023-05-24T10:20:19;9.50;;;6.20;;
18883;SDS011;9574;47.282;9.640;2023-05-24T10:22:47;10.37;;;5.93;;
18883;SDS011;9574;47.282;9.640;2023-05-24T10:25:20;8.37;;;5.50;;
18883;SDS011;9574;47.282;9.640;2023-05-24T10:27:49;6.90;;;5.10;;
18883;SDS011;9574;47.282;9.640;2023-05-24T10:30:22;8.53;;;5.73;;
18883;SDS011;9574;47.282;9.640;2023-05-24T10:32:55;9.20;;;5.23;;
18883;SDS011;9574;47.282;9.640;2023-05-24T10:35:22;12.47;;;6.57;;
18883;SDS011;9574;47.282;9.640;2023-05-24T10:37:51;10.77;;;6.07;;
18883;SDS011;9574;47.282;9.640;2023-05-24T10:40:20;12.17;;;6.53;;
18883;SDS011;9574;47.282;9.640;2023-05-24T10:42:49;8.97;;;6.17;;
18883;SDS011;9574;47.282;9.640;2023-05-24T10:45:31;12.47;;;5.93;;
18883;SDS011;9574;47.282;9.640;2023-05-24T10:50:57;8.47;;;5.43;;
18883;SDS011;9574;47.282;9.640;2023-05-24T10:53:26;12.20;;;6.43;;
18883;SDS011;9574;47.282;9.640;2023-05-24T10:55:54;12.93;;;6.73;;
18883;SDS011;9574;47.282;9.640;2023-05-24T10:58:26;13.37;;;6.83;;
18883;SDS011;9574;47.282;9.640;2023-05-24T11:01:13;11.57;;;6.43;;
18883;SDS011;9574;47.282;9.640;2023-05-24T11:03:51;13.13;;;6.90;;
18883;SDS011;9574;47.282;9.640;2023-05-24T11:06:19;10.07;;;6.47;;
18883;SDS011;9574;47.282;9.640;2023-05-24T11:09:07;13.63;;;7.23;;
18883;SDS011;9574;47.282;9.640;2023-05-24T11:11:36;12.53;;;7.03;;
18883;SDS011;9574;47.282;9.640;2023-05-24T11:14:04;11.00;;;6.60;;
18883;SDS011;9574;47.282;9.640;2023-05-24T11:16:33;13.17;;;7.57;;
18883;SDS011;9574;47.282;9.640;2023-05-24T11:19:11;11.57;;;6.60;;
18883;SDS011;9574;47.282;9.640;2023-05-24T11:21:42;9.10;;;6.83;;
18883;SDS011;9574;47.282;9.640;2023-05-24T11:24:10;10.80;;;7.23;;
18883;SDS011;9574;47.282;9.640;2023-05-24T11:26:38;10.30;;;6.73;;
18883;SDS011;9574;47.282;9.640;2023-05-24T11:29:06;10.10;;;6.27;;
18883;SDS011;9574;47.282;9.640;2023-05-24T11:31:35;8.73;;;6.07;;
18883;SDS011;9574;47.282;9.640;2023-05-24T11:34:04;12.83;;;6.77;;
18883;SDS011;9574;47.282;9.640;2023-05-24T11:36:31;11.07;;;7.23;;
18883;SDS011;9574;47.282;9.640;2023-05-24T11:39:00;9.33;;;5.60;;
18883;SDS011;9574;47.282;9.640;2023-05-24T11:41:33;13.23;;;7.13;;
18883;SDS011;9574;47.282;9.640;2023-05-24T11:44:02;11.70;;;5.70;;
18883;SDS011;9574;47.282;9.640;2023-05-24T11:46:30;9.83;;;6.50;;
18883;SDS011;9574;47.282;9.640;2023-05-24T11:49:01;10.93;;;6.43;;
18883;SDS011;9574;47.282;9.640;2023-05-24T11:51:28;12.27;;;6.93;;
18883;SDS011;9574;47.282;9.640;2023-05-24T11:53:56;13.77;;;6.93;;
18883;SDS011;9574;47.282;9.640;2023-05-24T11:56:24;12.37;;;6.40;;
18883;SDS011;9574;47.282;9.640;2023-05-24T11:58:53;13.20;;;7.77;;
18883;SDS011;9574;47.282;9.640;2023-05-24T12:01:29;10.40;;;6.97;;
18883;SDS011;9574;47.282;9.640;2023-05-24T12:03:56;10.90;;;6.83;;
18883;SDS011;9574;47.282;9.640;2023-05-24T12:06:32;10.60;;;6.70;;
18883;SDS011;9574;47.282;9.640;2023-05-24T12:09:00;12.17;;;6.77;;
18883;SDS011;9574;47.282;9.640;2023-05-24T12:11:30;10.37;;;6.07;;
18883;SDS011;9574;47.282;9.640;2023-05-24T12:13:59;16.37;;;7.33;;
18883;SDS011;9574;47.282;9.640;2023-05-24T12:16:26;11.50;;;7.00;;
18883;SDS011;9574;47.282;9.640;2023-05-24T12:18:57;19.10;;;9.30;;
18883;SDS011;9574;47.282;9.640;2023-05-24T12:21:27;15.30;;;7.40;;
18883;SDS011;9574;47.282;9.640;2023-05-24T12:24:03;11.83;;;6.93;;
18883;SDS011;9574;47.282;9.640;2023-05-24T12:26:35;14.10;;;7.20;;
18883;SDS011;9574;47.282;9.640;2023-05-24T12:29:06;12.70;;;7.67;;
18883;SDS011;9574;47.282;9.640;2023-05-24T12:31:33;11.93;;;6.80;;
18883;SDS011;9574;47.282;9.640;2023-05-24T12:34:01;12.80;;;6.73;;
18883;SDS011;9574;47.282;9.640;2023-05-24T12:36:31;12.47;;;6.40;;
18883;SDS011;9574;47.282;9.640;2023-05-24T12:39:04;14.70;;;7.33;;
18883;SDS011;9574;47.282;9.640;2023-05-24T12:41:42;12.63;;;6.70;;
18883;SDS011;9574;47.282;9.640;2023-05-24T12:44:09;12.73;;;6.93;;
18883;SDS011;9574;47.282;9.640;2023-05-24T12:46:36;15.37;;;7.20;;
18883;SDS011;9574;47.282;9.640;2023-05-24T12:49:03;10.70;;;6.80;;
18883;SDS011;9574;47.282;9.640;2023-05-24T12:51:32;12.33;;;6.90;;
18883;SDS011;9574;47.282;9.640;2023-05-24T12:53:59;13.43;;;7.07;;
18883;SDS011;9574;47.282;9.640;2023-05-24T12:56:28;12.63;;;6.80;;
18883;SDS011;9574;47.282;9.640;2023-05-24T12:58:56;13.27;;;7.07;;
18883;SDS011;9574;47.282;9.640;2023-05-24T13:01:23;10.70;;;6.33;;
18883;SDS011;9574;47.282;9.640;2023-05-24T13:03:50;10.70;;;6.70;;
18883;SDS011;9574;47.282;9.640;2023-05-24T13:06:17;11.07;;;7.00;;
18883;SDS011;9574;47.282;9.640;2023-05-24T13:08:46;12.57;;;7.10;;
18883;SDS011;9574;47.282;9.640;2023-05-24T13:11:13;12.20;;;6.93;;
18883;SDS011;9574;47.282;9.640;2023-05-24T13:13:40;11.60;;;7.07;;
18883;SDS011;9574;47.282;9.640;2023-05-24T13:16:08;10.77;;;6.57;;
18883;SDS011;9574;47.282;9.640;2023-05-24T13:18:35;9.53;;;6.47;;
18883;SDS011;9574;47.282;9.640;2023-05-24T13:21:02;14.80;;;7.00;;
18883;SDS011;9574;47.282;9.640;2023-05-24T13:23:30;14.20;;;6.77;;
18883;SDS011;9574;47.282;9.640;2023-05-24T13:25:58;15.20;;;7.23;;
18883;SDS011;9574;47.282;9.640;2023-05-24T13:28:26;11.93;;;6.83;;
18883;SDS011;9574;47.282;9.640;2023-05-24T13:30:53;12.53;;;7.20;;
18883;SDS011;9574;47.282;9.640;2023-05-24T13:33:20;15.10;;;7.03;;
18883;SDS011;9574;47.282;9.640;2023-05-24T13:35:47;14.23;;;7.17;;
18883;SDS011;9574;47.282;9.640;2023-05-24T13:38:14;11.33;;;6.30;;
18883;SDS011;9574;47.282;9.640;2023-05-24T13:40:41;12.57;;;7.03;;
18883;SDS011;9574;47.282;9.640;2023-05-24T13:43:09;13.47;;;7.27;;
18883;SDS011;9574;47.282;9.640;2023-05-24T13:45:36;12.90;;;7.27;;
18883;SDS011;9574;47.282;9.640;2023-05-24T13:48:06;12.47;;;7.23;;
18883;SDS011;9574;47.282;9.640;2023-05-24T13:50:36;14.07;;;6.70;;
18883;SDS011;9574;47.282;9.640;2023-05-24T13:53:04;11.17;;;7.27;;
18883;SDS011;9574;47.282;9.640;2023-05-24T13:55:32;13.90;;;7.83;;
18883;SDS011;9574;47.282;9.640;2023-05-24T13:58:01;14.53;;;7.50;;
18883;SDS011;9574;47.282;9.640;2023-05-24T14:00:31;17.37;;;7.43;;
18883;SDS011;9574;47.282;9.640;2023-05-24T14:02:59;14.27;;;7.17;;
18883;SDS011;9574;47.282;9.640;2023-05-24T14:05:26;15.90;;;7.50;;
18883;SDS011;9574;47.282;9.640;2023-05-24T14:07:55;14.83;;;7.43;;
18883;SDS011;9574;47.282;9.640;2023-05-24T14:10:24;12.37;;;6.87;;
18883;SDS011;9574;47.282;9.640;2023-05-24T14:12:51;13.60;;;6.80;;
18883;SDS011;9574;47.282;9.640;2023-05-24T14:15:21;13.40;;;7.27;;
18883;SDS011;9574;47.282;9.640;2023-05-24T14:17:50;11.23;;;6.27;;
18883;SDS011;9574;47.282;9.640;2023-05-24T14:20:17;13.27;;;7.53;;
18883;SDS011;9574;47.282;9.640;2023-05-24T14:22:44;15.30;;;8.00;;
18883;SDS011;9574;47.282;9.640;2023-05-24T14:25:11;13.27;;;7.37;;
18883;SDS011;9574;47.282;9.640;2023-05-24T14:27:38;10.97;;;6.80;;
18883;SDS011;9574;47.282;9.640;2023-05-24T14:30:08;14.10;;;7.30;;
18883;SDS011;9574;47.282;9.640;2023-05-24T14:35:23;14.27;;;6.80;;
18883;SDS011;9574;47.282;9.640;2023-05-24T14:37:50;13.87;;;7.10;;
18883;SDS011;9574;47.282;9.640;2023-05-24T14:40:18;16.37;;;7.37;;
18883;SDS011;9574;47.282;9.640;2023-05-24T14:42:45;11.73;;;7.43;;
18883;SDS011;9574;47.282;9.640;2023-05-24T14:45:12;11.13;;;6.60;;
18883;SDS011;9574;47.282;9.640;2023-05-24T14:47:42;12.60;;;7.33;;
18883;SDS011;9574;47.282;9.640;2023-05-24T14:50:11;16.27;;;6.93;;
18883;SDS011;9574;47.282;9.640;2023-05-24T14:52:38;11.07;;;6.90;;
18883;SDS011;9574;47.282;9.640;2023-05-24T14:55:05;11.27;;;7.30;;
18883;SDS011;9574;47.282;9.640;2023-05-24T14:57:32;12.37;;;6.90;;
18883;SDS011;9574;47.282;9.640;2023-05-24T14:59:59;11.30;;;6.80;;
18883;SDS011;9574;47.282;9.640;2023-05-24T15:02:27;11.17;;;6.77;;
18883;SDS011;9574;47.282;9.640;2023-05-24T15:04:54;11.57;;;6.43;;
18883;SDS011;9574;47.282;9.640;2023-05-24T15:07:22;11.93;;;6.03;;
18883;SDS011;9574;47.282;9.640;2023-05-24T15:09:50;13.40;;;6.60;;